sensor_id;sensor_type;location;lat;lon;timestamp;temperature;humidity
13482;DHT22;6813;60.352;15.746;2023-03-16T00:01:05;0.50;91.30
13482;DHT22;6813;60.352;15.746;2023-03-16T00:03:31;0.40;90.80
13482;DHT22;6813;60.352;15.746;2023-03-16T00:05:57;0.40;91.40
13482;DHT22;6813;60.352;15.746;2023-03-16T00:08:22;0.40;91.60
13482;DHT22;6813;60.352;15.746;2023-03-16T00:10:48;0.50;91.60
13482;DHT22;6813;60.352;15.746;2023-03-16T00:13:19;0.50;91.20
13482;DHT22;6813;60.352;15.746;2023-03-16T00:15:57;0.50;91.20
13482;DHT22;6813;60.352;15.746;2023-03-16T00:18:24;0.60;90.70
13482;DHT22;6813;60.352;15.746;2023-03-16T00:20:59;0.60;90.80
13482;DHT22;6813;60.352;15.746;2023-03-16T00:23:27;0.60;90.70
13482;DHT22;6813;60.352;15.746;2023-03-16T00:25:57;0.50;90.60
13482;DHT22;6813;60.352;15.746;2023-03-16T00:28:24;0.50;91.40
13482;DHT22;6813;60.352;15.746;2023-03-16T00:30:51;0.40;90.80
13482;DHT22;6813;60.352;15.746;2023-03-16T00:33:17;0.40;91.40
13482;DHT22;6813;60.352;15.746;2023-03-16T00:35:47;0.40;90.80
13482;DHT22;6813;60.352;15.746;2023-03-16T00:38:27;0.30;90.60
13482;DHT22;6813;60.352;15.746;2023-03-16T00:40:53;0.20;90.70
13482;DHT22;6813;60.352;15.746;2023-03-16T00:43:19;0.20;91.10
13482;DHT22;6813;60.352;15.746;2023-03-16T00:45:45;0.10;91.30
13482;DHT22;6813;60.352;15.746;2023-03-16T00:48:11;0.10;91.20
13482;DHT22;6813;60.352;15.746;2023-03-16T00:50:37;0.00;91.20
13482;DHT22;6813;60.352;15.746;2023-03-16T00:53:03;0.00;91.60
13482;DHT22;6813;60.352;15.746;2023-03-16T00:55:29;-0.20;91.20
13482;DHT22;6813;60.352;15.746;2023-03-16T00:57:54;-0.30;91.50
13482;DHT22;6813;60.352;15.746;2023-03-16T01:00:20;-0.30;91.60
13482;DHT22;6813;60.352;15.746;2023-03-16T01:02:46;-0.20;91.80
13482;DHT22;6813;60.352;15.746;2023-03-16T01:05:14;-0.20;91.70
13482;DHT22;6813;60.352;15.746;2023-03-16T01:07:40;-0.20;91.80
13482;DHT22;6813;60.352;15.746;2023-03-16T01:10:08;-0.20;92.20
13482;DHT22;6813;60.352;15.746;2023-03-16T01:12:34;-0.30;92.00
13482;DHT22;6813;60.352;15.746;2023-03-16T01:15:00;-0.20;92.30
13482;DHT22;6813;60.352;15.746;2023-03-16T01:17:26;-0.30;92.00
13482;DHT22;6813;60.352;15.746;2023-03-16T01:19:52;-0.30;92.10
13482;DHT22;6813;60.352;15.746;2023-03-16T01:22:18;-0.30;92.40
13482;DHT22;6813;60.352;15.746;2023-03-16T01:24:44;-0.30;92.30
13482;DHT22;6813;60.352;15.746;2023-03-16T01:27:10;-0.30;92.80
13482;DHT22;6813;60.352;15.746;2023-03-16T01:29:38;-0.20;92.80
13482;DHT22;6813;60.352;15.746;2023-03-16T01:32:05;-0.20;92.50
13482;DHT22;6813;60.352;15.746;2023-03-16T01:34:32;-0.30;92.00
13482;DHT22;6813;60.352;15.746;2023-03-16T01:36:58;-0.30;93.10
13482;DHT22;6813;60.352;15.746;2023-03-16T01:39:24;-0.30;93.00
13482;DHT22;6813;60.352;15.746;2023-03-16T01:41:50;-0.30;92.50
13482;DHT22;6813;60.352;15.746;2023-03-16T01:44:18;-0.40;92.50
13482;DHT22;6813;60.352;15.746;2023-03-16T01:46:45;-0.40;92.50
13482;DHT22;6813;60.352;15.746;2023-03-16T01:51:45;-0.40;92.70
13482;DHT22;6813;60.352;15.746;2023-03-16T01:54:19;-0.40;92.40
13482;DHT22;6813;60.352;15.746;2023-03-16T01:57:12;-0.30;92.60
13482;DHT22;6813;60.352;15.746;2023-03-16T01:59:52;-0.20;92.50
13482;DHT22;6813;60.352;15.746;2023-03-16T02:02:22;-0.20;92.30
13482;DHT22;6813;60.352;15.746;2023-03-16T02:07:33;-0.10;91.90
13482;DHT22;6813;60.352;15.746;2023-03-16T02:10:00;0.00;91.90
13482;DHT22;6813;60.352;15.746;2023-03-16T02:12:27;0.00;91.60
13482;DHT22;6813;60.352;15.746;2023-03-16T02:14:53;0.00;91.60
13482;DHT22;6813;60.352;15.746;2023-03-16T02:17:25;0.00;91.30
13482;DHT22;6813;60.352;15.746;2023-03-16T02:22:45;-0.20;91.30
13482;DHT22;6813;60.352;15.746;2023-03-16T02:25:12;-0.30;91.70
13482;DHT22;6813;60.352;15.746;2023-03-16T02:27:47;-0.30;92.40
13482;DHT22;6813;60.352;15.746;2023-03-16T02:30:18;-0.30;92.30
13482;DHT22;6813;60.352;15.746;2023-03-16T02:32:46;-0.30;92.00
13482;DHT22;6813;60.352;15.746;2023-03-16T02:35:13;-0.50;91.90
13482;DHT22;6813;60.352;15.746;2023-03-16T02:37:40;-0.50;92.30
13482;DHT22;6813;60.352;15.746;2023-03-16T02:40:33;-0.60;92.90
13482;DHT22;6813;60.352;15.746;2023-03-16T02:43:03;-0.60;93.00
13482;DHT22;6813;60.352;15.746;2023-03-16T02:45:54;-0.50;93.20
13482;DHT22;6813;60.352;15.746;2023-03-16T02:50:53;-0.50;93.60
13482;DHT22;6813;60.352;15.746;2023-03-16T02:53:19;-0.50;93.20
13482;DHT22;6813;60.352;15.746;2023-03-16T02:55:46;-0.60;93.10
13482;DHT22;6813;60.352;15.746;2023-03-16T02:58:13;-0.60;94.30
13482;DHT22;6813;60.352;15.746;2023-03-16T03:00:39;-0.60;93.40
13482;DHT22;6813;60.352;15.746;2023-03-16T03:03:05;-0.50;94.30
13482;DHT22;6813;60.352;15.746;2023-03-16T03:05:32;-0.50;94.00
13482;DHT22;6813;60.352;15.746;2023-03-16T03:07:58;-0.60;93.60
13482;DHT22;6813;60.352;15.746;2023-03-16T03:10:24;-0.60;94.20
13482;DHT22;6813;60.352;15.746;2023-03-16T03:12:49;-0.70;93.40
13482;DHT22;6813;60.352;15.746;2023-03-16T03:15:17;-0.80;93.30
13482;DHT22;6813;60.352;15.746;2023-03-16T03:17:43;-0.90;93.70
13482;DHT22;6813;60.352;15.746;2023-03-16T03:20:10;-0.90;94.60
13482;DHT22;6813;60.352;15.746;2023-03-16T03:22:49;-0.80;93.80
13482;DHT22;6813;60.352;15.746;2023-03-16T03:25:18;-0.80;93.60
13482;DHT22;6813;60.352;15.746;2023-03-16T03:27:45;-0.80;93.90
13482;DHT22;6813;60.352;15.746;2023-03-16T03:30:17;-0.70;93.50
13482;DHT22;6813;60.352;15.746;2023-03-16T03:32:43;-0.70;93.50
13482;DHT22;6813;60.352;15.746;2023-03-16T03:35:10;-0.70;93.50
13482;DHT22;6813;60.352;15.746;2023-03-16T03:37:38;-0.70;93.50
13482;DHT22;6813;60.352;15.746;2023-03-16T03:40:05;-0.60;93.20
13482;DHT22;6813;60.352;15.746;2023-03-16T03:42:31;-0.50;93.30
13482;DHT22;6813;60.352;15.746;2023-03-16T03:44:57;-0.40;93.30
13482;DHT22;6813;60.352;15.746;2023-03-16T03:47:22;-0.40;93.00
13482;DHT22;6813;60.352;15.746;2023-03-16T03:49:48;-0.40;93.00
13482;DHT22;6813;60.352;15.746;2023-03-16T03:52:14;-0.40;92.90
13482;DHT22;6813;60.352;15.746;2023-03-16T03:54:39;-0.50;92.80
13482;DHT22;6813;60.352;15.746;2023-03-16T03:57:05;-0.60;93.00
13482;DHT22;6813;60.352;15.746;2023-03-16T03:59:31;-0.60;92.80
13482;DHT22;6813;60.352;15.746;2023-03-16T04:01:57;-0.60;92.80
13482;DHT22;6813;60.352;15.746;2023-03-16T04:04:22;-0.60;93.10
13482;DHT22;6813;60.352;15.746;2023-03-16T04:06:48;-0.50;93.50
13482;DHT22;6813;60.352;15.746;2023-03-16T04:09:15;-0.50;92.90
13482;DHT22;6813;60.352;15.746;2023-03-16T04:11:41;-0.60;92.80
13482;DHT22;6813;60.352;15.746;2023-03-16T04:14:07;-0.60;92.90
13482;DHT22;6813;60.352;15.746;2023-03-16T04:16:34;-0.70;93.30
13482;DHT22;6813;60.352;15.746;2023-03-16T04:18:59;-0.70;93.30
13482;DHT22;6813;60.352;15.746;2023-03-16T04:21:26;-0.70;92.90
13482;DHT22;6813;60.352;15.746;2023-03-16T04:23:51;-0.80;92.80
13482;DHT22;6813;60.352;15.746;2023-03-16T04:26:20;-1.00;92.80
13482;DHT22;6813;60.352;15.746;2023-03-16T04:28:46;-1.00;93.40
13482;DHT22;6813;60.352;15.746;2023-03-16T04:31:12;-1.10;93.40
13482;DHT22;6813;60.352;15.746;2023-03-16T04:33:39;-1.10;93.60
13482;DHT22;6813;60.352;15.746;2023-03-16T04:36:06;-1.10;93.70
13482;DHT22;6813;60.352;15.746;2023-03-16T04:38:32;-1.30;93.30
13482;DHT22;6813;60.352;15.746;2023-03-16T04:40:59;-1.30;93.80
13482;DHT22;6813;60.352;15.746;2023-03-16T04:43:26;-1.20;94.40
13482;DHT22;6813;60.352;15.746;2023-03-16T04:45:51;-1.20;94.10
13482;DHT22;6813;60.352;15.746;2023-03-16T04:48:17;-1.20;94.10
13482;DHT22;6813;60.352;15.746;2023-03-16T04:50:43;-1.10;94.60
13482;DHT22;6813;60.352;15.746;2023-03-16T04:53:09;-1.00;94.30
13482;DHT22;6813;60.352;15.746;2023-03-16T04:55:35;-0.90;94.10
13482;DHT22;6813;60.352;15.746;2023-03-16T04:58:01;-0.90;93.50
13482;DHT22;6813;60.352;15.746;2023-03-16T05:00:27;-1.00;94.20
13482;DHT22;6813;60.352;15.746;2023-03-16T05:02:53;-1.00;93.90
13482;DHT22;6813;60.352;15.746;2023-03-16T05:05:19;-1.00;93.90
13482;DHT22;6813;60.352;15.746;2023-03-16T05:07:46;-1.10;94.20
13482;DHT22;6813;60.352;15.746;2023-03-16T05:10:14;-1.10;94.00
13482;DHT22;6813;60.352;15.746;2023-03-16T05:12:41;-1.10;94.10
13482;DHT22;6813;60.352;15.746;2023-03-16T05:15:07;-1.00;94.00
13482;DHT22;6813;60.352;15.746;2023-03-16T05:17:33;-0.90;93.90
13482;DHT22;6813;60.352;15.746;2023-03-16T05:19:59;-0.90;93.90
13482;DHT22;6813;60.352;15.746;2023-03-16T05:22:25;-0.90;93.70
13482;DHT22;6813;60.352;15.746;2023-03-16T05:24:51;-1.00;93.40
13482;DHT22;6813;60.352;15.746;2023-03-16T05:27:17;-1.10;93.40
13482;DHT22;6813;60.352;15.746;2023-03-16T05:29:42;-1.10;93.80
13482;DHT22;6813;60.352;15.746;2023-03-16T05:32:14;-1.00;93.80
13482;DHT22;6813;60.352;15.746;2023-03-16T05:34:42;-1.00;94.10
13482;DHT22;6813;60.352;15.746;2023-03-16T05:37:08;-1.00;93.70
13482;DHT22;6813;60.352;15.746;2023-03-16T05:39:34;-0.90;93.90
13482;DHT22;6813;60.352;15.746;2023-03-16T05:42:00;-0.90;94.10
13482;DHT22;6813;60.352;15.746;2023-03-16T05:44:25;-0.90;93.50
13482;DHT22;6813;60.352;15.746;2023-03-16T05:46:51;-0.90;93.60
13482;DHT22;6813;60.352;15.746;2023-03-16T05:49:17;-0.90;94.10
13482;DHT22;6813;60.352;15.746;2023-03-16T05:51:43;-0.80;93.90
13482;DHT22;6813;60.352;15.746;2023-03-16T05:54:09;-0.70;93.50
13482;DHT22;6813;60.352;15.746;2023-03-16T05:56:34;-0.60;93.60
13482;DHT22;6813;60.352;15.746;2023-03-16T05:59:00;-0.60;93.30
13482;DHT22;6813;60.352;15.746;2023-03-16T06:01:27;-0.60;93.50
13482;DHT22;6813;60.352;15.746;2023-03-16T06:03:53;-0.50;93.30
13482;DHT22;6813;60.352;15.746;2023-03-16T06:06:19;-0.50;93.00
13482;DHT22;6813;60.352;15.746;2023-03-16T06:08:47;-0.30;93.10
13482;DHT22;6813;60.352;15.746;2023-03-16T06:11:12;-0.10;93.10
13482;DHT22;6813;60.352;15.746;2023-03-16T06:13:39;0.00;93.00
13482;DHT22;6813;60.352;15.746;2023-03-16T06:16:05;0.30;92.70
13482;DHT22;6813;60.352;15.746;2023-03-16T06:18:33;0.50;92.40
13482;DHT22;6813;60.352;15.746;2023-03-16T06:20:59;0.60;92.20
13482;DHT22;6813;60.352;15.746;2023-03-16T06:23:25;0.60;92.10
13482;DHT22;6813;60.352;15.746;2023-03-16T06:25:51;0.80;91.80
13482;DHT22;6813;60.352;15.746;2023-03-16T06:28:19;1.00;91.40
13482;DHT22;6813;60.352;15.746;2023-03-16T06:30:45;1.20;91.70
13482;DHT22;6813;60.352;15.746;2023-03-16T06:33:11;1.50;91.80
13482;DHT22;6813;60.352;15.746;2023-03-16T06:35:37;1.90;90.90
13482;DHT22;6813;60.352;15.746;2023-03-16T06:38:03;2.10;90.40
13482;DHT22;6813;60.352;15.746;2023-03-16T06:40:28;2.50;89.50
13482;DHT22;6813;60.352;15.746;2023-03-16T06:42:55;2.70;89.00
13482;DHT22;6813;60.352;15.746;2023-03-16T06:45:21;2.80;88.30
13482;DHT22;6813;60.352;15.746;2023-03-16T06:47:47;3.00;88.10
13482;DHT22;6813;60.352;15.746;2023-03-16T06:50:13;3.40;87.60
13482;DHT22;6813;60.352;15.746;2023-03-16T06:52:39;3.70;86.20
13482;DHT22;6813;60.352;15.746;2023-03-16T06:55:06;3.80;83.90
13482;DHT22;6813;60.352;15.746;2023-03-16T06:57:32;3.80;83.30
13482;DHT22;6813;60.352;15.746;2023-03-16T06:59:58;3.90;82.60
13482;DHT22;6813;60.352;15.746;2023-03-16T07:02:24;4.00;82.70
13482;DHT22;6813;60.352;15.746;2023-03-16T07:04:49;4.10;82.50
13482;DHT22;6813;60.352;15.746;2023-03-16T07:07:15;4.20;81.60
13482;DHT22;6813;60.352;15.746;2023-03-16T07:09:44;4.40;81.10
13482;DHT22;6813;60.352;15.746;2023-03-16T07:12:10;4.70;81.90
13482;DHT22;6813;60.352;15.746;2023-03-16T07:14:36;4.70;78.90
13482;DHT22;6813;60.352;15.746;2023-03-16T07:17:04;4.80;79.80
13482;DHT22;6813;60.352;15.746;2023-03-16T07:19:30;5.00;80.20
13482;DHT22;6813;60.352;15.746;2023-03-16T07:21:55;5.20;79.20
13482;DHT22;6813;60.352;15.746;2023-03-16T07:24:21;5.50;78.50
13482;DHT22;6813;60.352;15.746;2023-03-16T07:26:47;5.60;77.00
13482;DHT22;6813;60.352;15.746;2023-03-16T07:29:13;5.70;76.60
13482;DHT22;6813;60.352;15.746;2023-03-16T07:31:39;5.90;76.10
13482;DHT22;6813;60.352;15.746;2023-03-16T07:34:05;6.20;76.20
13482;DHT22;6813;60.352;15.746;2023-03-16T07:36:31;6.50;75.30
13482;DHT22;6813;60.352;15.746;2023-03-16T07:38:57;6.50;73.60
13482;DHT22;6813;60.352;15.746;2023-03-16T07:41:23;6.70;74.30
13482;DHT22;6813;60.352;15.746;2023-03-16T07:43:50;6.80;72.50
13482;DHT22;6813;60.352;15.746;2023-03-16T07:46:16;6.80;73.30
13482;DHT22;6813;60.352;15.746;2023-03-16T07:48:43;6.90;72.30
13482;DHT22;6813;60.352;15.746;2023-03-16T07:51:10;7.00;72.90
13482;DHT22;6813;60.352;15.746;2023-03-16T07:53:37;7.00;72.50
13482;DHT22;6813;60.352;15.746;2023-03-16T07:56:03;7.10;72.30
13482;DHT22;6813;60.352;15.746;2023-03-16T07:58:29;7.20;71.80
13482;DHT22;6813;60.352;15.746;2023-03-16T08:00:56;7.10;71.30
13482;DHT22;6813;60.352;15.746;2023-03-16T08:03:23;7.30;70.50
13482;DHT22;6813;60.352;15.746;2023-03-16T08:05:49;7.50;71.70
13482;DHT22;6813;60.352;15.746;2023-03-16T08:08:16;7.40;70.00
13482;DHT22;6813;60.352;15.746;2023-03-16T08:10:42;7.30;71.30
13482;DHT22;6813;60.352;15.746;2023-03-16T08:13:08;7.30;70.60
13482;DHT22;6813;60.352;15.746;2023-03-16T08:15:34;7.30;72.40
13482;DHT22;6813;60.352;15.746;2023-03-16T08:18:00;7.50;71.30
13482;DHT22;6813;60.352;15.746;2023-03-16T08:20:28;7.70;70.30
13482;DHT22;6813;60.352;15.746;2023-03-16T08:22:54;8.00;69.10
13482;DHT22;6813;60.352;15.746;2023-03-16T08:25:20;8.20;69.10
13482;DHT22;6813;60.352;15.746;2023-03-16T08:27:46;8.30;68.70
13482;DHT22;6813;60.352;15.746;2023-03-16T08:30:14;7.80;65.30
13482;DHT22;6813;60.352;15.746;2023-03-16T08:32:40;7.60;67.50
13482;DHT22;6813;60.352;15.746;2023-03-16T08:35:08;7.60;69.00
13482;DHT22;6813;60.352;15.746;2023-03-16T08:37:34;7.90;68.70
13482;DHT22;6813;60.352;15.746;2023-03-16T08:40:00;8.00;68.00
13482;DHT22;6813;60.352;15.746;2023-03-16T08:42:26;8.00;67.60
13482;DHT22;6813;60.352;15.746;2023-03-16T08:44:54;8.20;66.90
13482;DHT22;6813;60.352;15.746;2023-03-16T08:47:23;8.30;68.00
13482;DHT22;6813;60.352;15.746;2023-03-16T08:49:49;8.10;67.10
13482;DHT22;6813;60.352;15.746;2023-03-16T08:52:15;7.90;66.80
13482;DHT22;6813;60.352;15.746;2023-03-16T08:54:41;7.90;68.80
13482;DHT22;6813;60.352;15.746;2023-03-16T08:57:08;7.90;68.60
13482;DHT22;6813;60.352;15.746;2023-03-16T08:59:35;7.90;70.40
13482;DHT22;6813;60.352;15.746;2023-03-16T09:02:01;7.90;66.40
13482;DHT22;6813;60.352;15.746;2023-03-16T09:04:29;7.90;67.00
13482;DHT22;6813;60.352;15.746;2023-03-16T09:06:55;7.90;66.90
13482;DHT22;6813;60.352;15.746;2023-03-16T09:09:21;7.60;67.00
13482;DHT22;6813;60.352;15.746;2023-03-16T09:11:47;7.50;66.90
13482;DHT22;6813;60.352;15.746;2023-03-16T09:14:14;7.60;68.30
13482;DHT22;6813;60.352;15.746;2023-03-16T09:16:40;7.60;67.60
13482;DHT22;6813;60.352;15.746;2023-03-16T09:19:06;7.70;67.00
13482;DHT22;6813;60.352;15.746;2023-03-16T09:21:32;7.60;67.10
13482;DHT22;6813;60.352;15.746;2023-03-16T09:24:00;7.80;68.10
13482;DHT22;6813;60.352;15.746;2023-03-16T09:26:26;7.70;68.50
13482;DHT22;6813;60.352;15.746;2023-03-16T09:28:53;7.80;68.20
13482;DHT22;6813;60.352;15.746;2023-03-16T09:31:20;7.80;68.50
13482;DHT22;6813;60.352;15.746;2023-03-16T09:33:47;7.90;69.80
13482;DHT22;6813;60.352;15.746;2023-03-16T09:36:13;7.90;67.70
13482;DHT22;6813;60.352;15.746;2023-03-16T09:38:40;7.80;67.90
13482;DHT22;6813;60.352;15.746;2023-03-16T09:41:29;7.60;69.10
13482;DHT22;6813;60.352;15.746;2023-03-16T09:44:25;7.50;68.10
13482;DHT22;6813;60.352;15.746;2023-03-16T09:46:56;7.60;69.00
13482;DHT22;6813;60.352;15.746;2023-03-16T09:49:26;7.50;70.10
13482;DHT22;6813;60.352;15.746;2023-03-16T09:55:09;7.30;68.70
13482;DHT22;6813;60.352;15.746;2023-03-16T09:57:40;7.30;69.90
13482;DHT22;6813;60.352;15.746;2023-03-16T10:00:24;7.10;68.20
13482;DHT22;6813;60.352;15.746;2023-03-16T10:03:01;7.20;69.10
13482;DHT22;6813;60.352;15.746;2023-03-16T10:05:30;7.10;69.70
13482;DHT22;6813;60.352;15.746;2023-03-16T10:08:22;7.10;71.40
13482;DHT22;6813;60.352;15.746;2023-03-16T10:13:43;7.10;72.00
13482;DHT22;6813;60.352;15.746;2023-03-16T10:22:02;6.90;70.10
13482;DHT22;6813;60.352;15.746;2023-03-16T10:27:16;7.00;71.00
13482;DHT22;6813;60.352;15.746;2023-03-16T10:29:43;7.20;70.30
13482;DHT22;6813;60.352;15.746;2023-03-16T10:32:16;7.10;69.20
13482;DHT22;6813;60.352;15.746;2023-03-16T10:34:47;7.10;68.90
13482;DHT22;6813;60.352;15.746;2023-03-16T10:37:17;7.10;71.30
13482;DHT22;6813;60.352;15.746;2023-03-16T10:39:43;7.20;72.20
13482;DHT22;6813;60.352;15.746;2023-03-16T10:42:19;7.40;70.00
13482;DHT22;6813;60.352;15.746;2023-03-16T10:44:46;7.50;68.30
13482;DHT22;6813;60.352;15.746;2023-03-16T10:47:18;7.30;68.50
13482;DHT22;6813;60.352;15.746;2023-03-16T10:49:44;7.40;70.20
13482;DHT22;6813;60.352;15.746;2023-03-16T10:52:39;7.50;70.90
13482;DHT22;6813;60.352;15.746;2023-03-16T10:57:40;7.50;70.00
13482;DHT22;6813;60.352;15.746;2023-03-16T11:00:47;7.50;69.00
13482;DHT22;6813;60.352;15.746;2023-03-16T11:03:20;7.50;69.50
13482;DHT22;6813;60.352;15.746;2023-03-16T11:06:00;7.60;68.80
13482;DHT22;6813;60.352;15.746;2023-03-16T11:08:30;7.60;68.60
13482;DHT22;6813;60.352;15.746;2023-03-16T11:11:07;7.60;68.70
13482;DHT22;6813;60.352;15.746;2023-03-16T11:13:35;7.60;68.50
13482;DHT22;6813;60.352;15.746;2023-03-16T11:16:12;7.60;67.10
13482;DHT22;6813;60.352;15.746;2023-03-16T11:18:47;7.60;68.70
13482;DHT22;6813;60.352;15.746;2023-03-16T11:23:50;7.60;67.00
13482;DHT22;6813;60.352;15.746;2023-03-16T11:26:30;7.30;67.30
13482;DHT22;6813;60.352;15.746;2023-03-16T11:29:23;7.40;68.80
13482;DHT22;6813;60.352;15.746;2023-03-16T11:31:54;7.70;67.70
13482;DHT22;6813;60.352;15.746;2023-03-16T11:34:27;7.60;67.60
13482;DHT22;6813;60.352;15.746;2023-03-16T11:36:58;7.70;67.10
13482;DHT22;6813;60.352;15.746;2023-03-16T11:42:39;7.40;66.80
13482;DHT22;6813;60.352;15.746;2023-03-16T11:56:51;7.50;67.30
13482;DHT22;6813;60.352;15.746;2023-03-16T12:02:17;7.60;66.50
13482;DHT22;6813;60.352;15.746;2023-03-16T12:18:52;7.70;65.20
13482;DHT22;6813;60.352;15.746;2023-03-16T12:21:32;7.60;65.00
13482;DHT22;6813;60.352;15.746;2023-03-16T12:24:09;7.50;65.00
13482;DHT22;6813;60.352;15.746;2023-03-16T12:26:39;7.40;65.70
13482;DHT22;6813;60.352;15.746;2023-03-16T12:32:14;7.40;65.70
13482;DHT22;6813;60.352;15.746;2023-03-16T12:34:46;7.20;65.50
13482;DHT22;6813;60.352;15.746;2023-03-16T12:42:41;7.10;64.20
13482;DHT22;6813;60.352;15.746;2023-03-16T12:45:37;7.10;64.20
13482;DHT22;6813;60.352;15.746;2023-03-16T12:50:51;7.10;63.40
13482;DHT22;6813;60.352;15.746;2023-03-16T12:56:20;6.80;62.20
13482;DHT22;6813;60.352;15.746;2023-03-16T12:58:55;6.80;63.20
13482;DHT22;6813;60.352;15.746;2023-03-16T13:01:27;6.70;62.90
13482;DHT22;6813;60.352;15.746;2023-03-16T13:04:00;6.70;62.90
13482;DHT22;6813;60.352;15.746;2023-03-16T13:06:31;6.70;63.20
13482;DHT22;6813;60.352;15.746;2023-03-16T13:08:58;6.70;62.00
13482;DHT22;6813;60.352;15.746;2023-03-16T13:11:26;6.70;61.40
13482;DHT22;6813;60.352;15.746;2023-03-16T13:16:30;6.70;62.60
13482;DHT22;6813;60.352;15.746;2023-03-16T13:18:56;6.70;61.40
13482;DHT22;6813;60.352;15.746;2023-03-16T13:21:40;6.70;61.10
13482;DHT22;6813;60.352;15.746;2023-03-16T13:24:27;6.60;61.00
13482;DHT22;6813;60.352;15.746;2023-03-16T13:27:12;6.50;61.70
13482;DHT22;6813;60.352;15.746;2023-03-16T13:29:40;6.50;60.80
13482;DHT22;6813;60.352;15.746;2023-03-16T13:32:17;6.40;60.70
13482;DHT22;6813;60.352;15.746;2023-03-16T13:34:47;6.50;61.10
13482;DHT22;6813;60.352;15.746;2023-03-16T13:37:16;6.50;61.50
13482;DHT22;6813;60.352;15.746;2023-03-16T13:39:51;6.50;61.70
13482;DHT22;6813;60.352;15.746;2023-03-16T13:42:20;6.60;61.60
13482;DHT22;6813;60.352;15.746;2023-03-16T13:44:46;6.60;60.70
13482;DHT22;6813;60.352;15.746;2023-03-16T13:47:16;6.50;61.80
13482;DHT22;6813;60.352;15.746;2023-03-16T13:49:47;6.50;63.10
13482;DHT22;6813;60.352;15.746;2023-03-16T13:52:27;6.50;63.10
13482;DHT22;6813;60.352;15.746;2023-03-16T13:54:54;6.40;62.30
13482;DHT22;6813;60.352;15.746;2023-03-16T13:57:23;6.50;62.50
13482;DHT22;6813;60.352;15.746;2023-03-16T13:59:50;6.50;62.50
13482;DHT22;6813;60.352;15.746;2023-03-16T14:02:23;6.50;61.40
13482;DHT22;6813;60.352;15.746;2023-03-16T14:04:49;6.60;61.50
13482;DHT22;6813;60.352;15.746;2023-03-16T14:07:20;6.50;61.70
13482;DHT22;6813;60.352;15.746;2023-03-16T14:09:46;6.60;59.20
13482;DHT22;6813;60.352;15.746;2023-03-16T14:12:16;6.50;59.50
13482;DHT22;6813;60.352;15.746;2023-03-16T14:14:45;6.50;59.70
13482;DHT22;6813;60.352;15.746;2023-03-16T14:17:17;6.50;59.30
13482;DHT22;6813;60.352;15.746;2023-03-16T14:19:49;6.50;60.80
13482;DHT22;6813;60.352;15.746;2023-03-16T14:22:21;6.60;62.10
13482;DHT22;6813;60.352;15.746;2023-03-16T14:24:56;6.60;62.20
13482;DHT22;6813;60.352;15.746;2023-03-16T14:27:30;6.60;61.30
13482;DHT22;6813;60.352;15.746;2023-03-16T14:30:18;6.70;60.60
13482;DHT22;6813;60.352;15.746;2023-03-16T14:33:01;6.70;61.70
13482;DHT22;6813;60.352;15.746;2023-03-16T14:37:54;6.80;61.30
13482;DHT22;6813;60.352;15.746;2023-03-16T14:40:28;6.70;60.40
13482;DHT22;6813;60.352;15.746;2023-03-16T14:42:57;6.70;59.60
13482;DHT22;6813;60.352;15.746;2023-03-16T14:45:29;6.70;60.00
13482;DHT22;6813;60.352;15.746;2023-03-16T14:48:12;6.70;59.90
13482;DHT22;6813;60.352;15.746;2023-03-16T14:50:43;6.70;59.40
13482;DHT22;6813;60.352;15.746;2023-03-16T14:53:09;6.70;59.80
13482;DHT22;6813;60.352;15.746;2023-03-16T14:55:35;6.70;59.70
13482;DHT22;6813;60.352;15.746;2023-03-16T14:58:02;6.60;59.30
13482;DHT22;6813;60.352;15.746;2023-03-16T15:00:29;6.60;59.70
13482;DHT22;6813;60.352;15.746;2023-03-16T15:02:57;6.60;60.40
13482;DHT22;6813;60.352;15.746;2023-03-16T15:05:33;6.60;60.00
13482;DHT22;6813;60.352;15.746;2023-03-16T15:07:59;6.60;60.50
13482;DHT22;6813;60.352;15.746;2023-03-16T15:10:27;6.60;60.30
13482;DHT22;6813;60.352;15.746;2023-03-16T15:12:54;6.60;60.00
13482;DHT22;6813;60.352;15.746;2023-03-16T15:15:29;6.50;59.50
13482;DHT22;6813;60.352;15.746;2023-03-16T15:17:55;6.50;59.60
13482;DHT22;6813;60.352;15.746;2023-03-16T15:20:28;6.50;59.60
13482;DHT22;6813;60.352;15.746;2023-03-16T15:22:56;6.50;60.60
13482;DHT22;6813;60.352;15.746;2023-03-16T15:25:42;6.40;61.20
13482;DHT22;6813;60.352;15.746;2023-03-16T15:28:16;6.40;61.20
13482;DHT22;6813;60.352;15.746;2023-03-16T15:30:43;6.40;60.80
13482;DHT22;6813;60.352;15.746;2023-03-16T15:33:10;6.40;61.30
13482;DHT22;6813;60.352;15.746;2023-03-16T15:35:37;6.40;59.70
13482;DHT22;6813;60.352;15.746;2023-03-16T15:38:30;6.30;60.00
13482;DHT22;6813;60.352;15.746;2023-03-16T15:40:58;6.30;60.60
13482;DHT22;6813;60.352;15.746;2023-03-16T15:43:26;6.30;60.20
13482;DHT22;6813;60.352;15.746;2023-03-16T15:45:54;6.30;60.00
13482;DHT22;6813;60.352;15.746;2023-03-16T15:48:20;6.30;59.70
13482;DHT22;6813;60.352;15.746;2023-03-16T15:50:54;6.30;60.00
13482;DHT22;6813;60.352;15.746;2023-03-16T15:56:16;6.20;62.00
13482;DHT22;6813;60.352;15.746;2023-03-16T15:58:44;6.30;65.20
13482;DHT22;6813;60.352;15.746;2023-03-16T16:01:21;6.00;65.40
13482;DHT22;6813;60.352;15.746;2023-03-16T16:03:48;6.00;67.50
13482;DHT22;6813;60.352;15.746;2023-03-16T16:06:14;6.00;68.60
13482;DHT22;6813;60.352;15.746;2023-03-16T16:08:40;6.00;67.30
13482;DHT22;6813;60.352;15.746;2023-03-16T16:11:15;5.90;65.90
13482;DHT22;6813;60.352;15.746;2023-03-16T16:13:42;5.80;66.00
13482;DHT22;6813;60.352;15.746;2023-03-16T16:16:13;5.70;68.00
13482;DHT22;6813;60.352;15.746;2023-03-16T16:18:39;5.50;69.60
13482;DHT22;6813;60.352;15.746;2023-03-16T16:21:06;5.50;72.20
13482;DHT22;6813;60.352;15.746;2023-03-16T16:23:34;5.70;76.20
13482;DHT22;6813;60.352;15.746;2023-03-16T16:26:10;5.80;75.60
13482;DHT22;6813;60.352;15.746;2023-03-16T16:28:39;5.90;73.90
13482;DHT22;6813;60.352;15.746;2023-03-16T16:31:11;5.70;71.90
13482;DHT22;6813;60.352;15.746;2023-03-16T16:33:37;5.60;72.70
13482;DHT22;6813;60.352;15.746;2023-03-16T16:36:05;5.60;73.70
13482;DHT22;6813;60.352;15.746;2023-03-16T16:38:32;5.60;73.80
13482;DHT22;6813;60.352;15.746;2023-03-16T16:41:02;5.60;74.20
13482;DHT22;6813;60.352;15.746;2023-03-16T16:43:37;5.70;75.00
13482;DHT22;6813;60.352;15.746;2023-03-16T16:46:23;5.50;71.60
13482;DHT22;6813;60.352;15.746;2023-03-16T16:51:21;5.10;73.20
13482;DHT22;6813;60.352;15.746;2023-03-16T16:53:48;5.10;74.10
13482;DHT22;6813;60.352;15.746;2023-03-16T16:56:16;5.10;71.90
13482;DHT22;6813;60.352;15.746;2023-03-16T16:58:43;5.00;72.60
13482;DHT22;6813;60.352;15.746;2023-03-16T17:01:14;5.00;73.70
13482;DHT22;6813;60.352;15.746;2023-03-16T17:03:40;5.00;72.70
13482;DHT22;6813;60.352;15.746;2023-03-16T17:06:16;5.00;72.80
13482;DHT22;6813;60.352;15.746;2023-03-16T17:08:45;5.00;73.80
13482;DHT22;6813;60.352;15.746;2023-03-16T17:11:24;5.10;73.40
13482;DHT22;6813;60.352;15.746;2023-03-16T17:13:52;5.00;73.50
13482;DHT22;6813;60.352;15.746;2023-03-16T17:16:20;4.90;72.80
13482;DHT22;6813;60.352;15.746;2023-03-16T17:18:51;4.90;75.30
13482;DHT22;6813;60.352;15.746;2023-03-16T17:21:19;4.80;74.60